createdAt,value
2018-02-24T00:00:07.142Z,16.37
2018-02-24T00:00:55.919Z,16.52
2018-02-24T00:01:45.016Z,16.90
2018-02-24T00:02:34.065Z,16.05
2018-02-24T00:03:23.102Z,17.02
2018-02-24T00:04:12.152Z,16.45
2018-02-24T00:05:01.268Z,15.82
2018-02-24T00:05:50.337Z,17.60
2018-02-24T00:06:39.372Z,17.10
2018-02-24T00:07:28.418Z,17.77
2018-02-24T00:08:17.476Z,18.02
2018-02-24T00:09:06.518Z,17.08
2018-02-24T00:09:55.651Z,16.87
2018-02-24T00:10:44.697Z,16.23
2018-02-24T00:11:33.760Z,16.92
2018-02-24T00:12:22.810Z,15.75
2018-02-24T00:13:11.852Z,15.40
2018-02-24T00:14:00.926Z,15.00
2018-02-24T00:14:49.979Z,15.55
2018-02-24T00:15:39.076Z,14.98
2018-02-24T00:16:28.127Z,14.52
2018-02-24T00:17:17.209Z,15.65
2018-02-24T00:18:06.243Z,14.82
2018-02-24T00:18:55.292Z,15.05
2018-02-24T00:19:44.354Z,15.68
2018-02-24T00:20:33.405Z,15.38
2018-02-24T00:21:22.480Z,15.30
2018-02-24T00:22:11.532Z,14.87
2018-02-24T00:23:00.584Z,14.45
2018-02-24T00:23:49.645Z,14.02
2018-02-24T00:24:38.717Z,13.98
2018-02-24T00:25:27.773Z,13.35
2018-02-24T00:26:16.807Z,14.38
2018-02-24T00:27:06.073Z,14.07
2018-02-24T00:27:55.130Z,13.32
2018-02-24T00:28:44.297Z,13.65
2018-02-24T00:29:33.354Z,12.90
2018-02-24T00:30:22.398Z,13.02
2018-02-24T00:31:13.881Z,13.80
2018-02-24T00:32:03.043Z,12.80
2018-02-24T00:32:52.080Z,13.60
2018-02-24T00:33:41.149Z,13.02
2018-02-24T00:34:30.195Z,15.32
2018-02-24T00:35:19.281Z,15.85
2018-02-24T00:36:08.336Z,13.68
2018-02-24T00:36:57.398Z,13.35
2018-02-24T00:37:46.493Z,14.15
2018-02-24T00:38:35.549Z,18.25
2018-02-24T00:39:24.617Z,19.50
2018-02-24T00:40:13.664Z,22.67
2018-02-24T00:41:02.727Z,22.52
2018-02-24T00:41:51.780Z,20.00
2018-02-24T00:42:40.848Z,18.65
2018-02-24T00:43:30.373Z,20.02
2018-02-24T00:44:19.427Z,17.77
2018-02-24T00:45:08.463Z,16.95
2018-02-24T00:45:57.565Z,15.25
2018-02-24T00:46:46.636Z,15.43
2018-02-24T00:47:35.683Z,15.77
2018-02-24T00:48:24.772Z,16.75
2018-02-24T00:49:13.838Z,14.63
2018-02-24T00:50:02.918Z,16.65
2018-02-24T00:50:51.968Z,15.45
2018-02-24T00:51:41.094Z,15.48
2018-02-24T00:52:30.153Z,17.40
2018-02-24T00:53:19.228Z,17.20
2018-02-24T00:54:08.305Z,18.55
2018-02-24T00:54:57.352Z,15.60
2018-02-24T00:55:46.579Z,17.00
2018-02-24T00:56:35.619Z,15.65
2018-02-24T00:57:24.733Z,13.32
2018-02-24T00:58:13.804Z,12.50
2018-02-24T00:59:02.864Z,14.98
2018-02-24T00:59:51.901Z,12.95
2018-02-24T01:00:40.947Z,13.40
2018-02-24T01:01:30.021Z,14.25
2018-02-24T01:02:19.076Z,13.75
2018-02-24T01:03:08.224Z,12.68
2018-02-24T01:03:57.274Z,13.05
2018-02-24T01:04:46.354Z,13.35
2018-02-24T01:05:35.432Z,12.77
2018-02-24T01:06:24.692Z,12.85
2018-02-24T01:07:13.742Z,14.15
2018-02-24T01:08:02.814Z,14.45
2018-02-24T01:08:52.083Z,12.70
2018-02-24T01:09:41.128Z,13.93
2018-02-24T01:10:30.185Z,14.02
2018-02-24T01:11:19.251Z,14.38
2018-02-24T01:12:08.305Z,14.00
2018-02-24T01:12:57.414Z,13.68
2018-02-24T01:13:46.528Z,14.43
2018-02-24T01:14:35.617Z,13.02
2018-02-24T01:15:24.659Z,13.90
2018-02-24T01:16:13.698Z,13.95
2018-02-24T01:17:02.799Z,14.13
2018-02-24T01:17:51.856Z,13.73
2018-02-24T01:18:40.923Z,12.98
2018-02-24T01:19:30.115Z,13.35
2018-02-24T01:20:19.180Z,13.52
2018-02-24T01:21:08.238Z,13.60
2018-02-24T01:21:57.274Z,14.43
2018-02-24T01:22:46.324Z,13.43
2018-02-24T01:23:35.446Z,13.57
2018-02-24T01:24:24.495Z,13.07
2018-02-24T01:25:14.583Z,13.70
2018-02-24T01:26:03.640Z,13.82
2018-02-24T01:26:52.680Z,14.10
2018-02-24T01:27:41.750Z,12.95
2018-02-24T01:28:30.795Z,13.75
2018-02-24T01:29:19.846Z,14.20
2018-02-24T01:30:08.882Z,13.43
2018-02-24T01:30:57.964Z,14.45
2018-02-24T01:31:47.010Z,14.50
2018-02-24T01:32:36.100Z,15.38
2018-02-24T01:33:25.156Z,14.63
2018-02-24T01:34:14.216Z,15.68
2018-02-24T01:35:03.298Z,14.87
2018-02-24T01:35:52.353Z,15.10
2018-02-24T01:36:41.498Z,15.45
2018-02-24T01:37:30.533Z,16.77
2018-02-24T01:38:19.575Z,16.02
2018-02-24T01:39:08.617Z,15.98
2018-02-24T01:39:57.669Z,17.02
2018-02-24T01:40:46.723Z,16.58
2018-02-24T01:41:35.772Z,16.83
2018-02-24T01:42:25.067Z,16.42
2018-02-24T01:43:14.123Z,16.55
2018-02-24T01:44:03.175Z,16.45
2018-02-24T01:44:52.241Z,15.80
2018-02-24T01:45:41.283Z,15.18
2018-02-24T01:46:30.327Z,16.60
2018-02-24T01:47:19.379Z,17.00
2018-02-24T01:48:08.456Z,15.57
2018-02-24T01:48:57.501Z,15.60
2018-02-24T01:49:46.558Z,16.02
2018-02-24T01:50:41.549Z,16.02
2018-02-24T01:51:30.595Z,15.98
2018-02-24T01:52:19.650Z,16.35
2018-02-24T01:53:11.493Z,17.80
2018-02-24T01:54:00.545Z,16.67
2018-02-24T01:54:49.584Z,17.80
2018-02-24T01:55:38.643Z,17.20
2018-02-24T01:56:27.879Z,16.45
2018-02-24T01:57:16.924Z,17.50
2018-02-24T01:58:05.963Z,16.50
2018-02-24T01:58:54.998Z,17.80
2018-02-24T01:59:44.075Z,20.20
2018-02-24T02:00:33.134Z,18.12
2018-02-24T02:01:22.178Z,18.67
2018-02-24T02:02:11.459Z,18.80
2018-02-24T02:03:00.504Z,19.77
2018-02-24T02:03:49.565Z,17.48
2018-02-24T02:04:38.619Z,18.33
2018-02-24T02:05:27.659Z,19.12
2018-02-24T02:06:16.763Z,20.20
2018-02-24T02:07:05.825Z,19.40
2018-02-24T02:07:54.890Z,18.15
2018-02-24T02:08:43.961Z,18.95
2018-02-24T02:09:33.003Z,18.87
2018-02-24T02:10:22.091Z,18.73
2018-02-24T02:11:11.178Z,17.40
2018-02-24T02:12:00.243Z,18.65
2018-02-24T02:12:49.302Z,18.67
2018-02-24T02:13:38.339Z,15.82
2018-02-24T02:14:27.381Z,16.75
2018-02-24T02:15:16.427Z,17.45
2018-02-24T02:16:05.490Z,17.48
2018-02-24T02:16:54.603Z,16.20
2018-02-24T02:17:44.690Z,17.75
2018-02-24T02:18:33.782Z,19.08
2018-02-24T02:19:22.962Z,17.30
2018-02-24T02:20:12.027Z,18.10
2018-02-24T02:21:01.090Z,17.87
2018-02-24T02:21:50.152Z,17.05
2018-02-24T02:22:39.208Z,16.80
2018-02-24T02:23:28.250Z,18.20
2018-02-24T02:24:17.322Z,15.88
2018-02-24T02:25:06.478Z,16.65
2018-02-24T02:25:55.511Z,15.80
2018-02-24T02:26:44.623Z,16.92
2018-02-24T02:27:33.686Z,16.75
2018-02-24T02:28:22.734Z,16.90
2018-02-24T02:29:11.772Z,16.92
2018-02-24T02:30:00.814Z,16.92
2018-02-24T02:30:49.900Z,14.90
2018-02-24T02:31:38.954Z,14.63
2018-02-24T02:32:29.070Z,15.25
2018-02-24T02:33:18.117Z,16.30
2018-02-24T02:34:07.157Z,17.70
2018-02-24T02:34:56.232Z,17.95
2018-02-24T02:35:45.296Z,16.52
2018-02-24T02:36:34.343Z,17.50
2018-02-24T02:37:23.392Z,17.12
2018-02-24T02:38:12.626Z,16.77
2018-02-24T02:39:01.679Z,18.58
2018-02-24T02:39:50.741Z,18.60
2018-02-24T02:40:39.771Z,19.87
2018-02-24T02:41:28.828Z,19.02
2018-02-24T02:42:17.889Z,20.85
2018-02-24T02:43:06.930Z,20.12
2018-02-24T02:43:56.003Z,18.60
2018-02-24T02:44:45.113Z,17.52
2018-02-24T02:45:34.195Z,18.58
2018-02-24T02:46:23.284Z,18.52
2018-02-24T02:47:12.333Z,17.25
2018-02-24T02:48:01.388Z,17.77
2018-02-24T02:48:50.432Z,16.52
2018-02-24T02:49:39.522Z,18.25
2018-02-24T02:50:28.560Z,18.02
2018-02-24T02:51:17.621Z,17.27
2018-02-24T02:52:06.662Z,16.67
2018-02-24T02:52:55.695Z,17.80
2018-02-24T02:53:44.758Z,18.05
2018-02-24T02:54:33.816Z,17.27
2018-02-24T02:55:22.998Z,15.82
2018-02-24T02:56:12.056Z,15.52
2018-02-24T02:57:01.111Z,15.98
2018-02-24T02:57:50.161Z,16.65
2018-02-24T02:58:39.219Z,17.08
2018-02-24T02:59:28.290Z,26.00
2018-02-24T03:00:17.345Z,23.42
2018-02-24T03:01:07.667Z,25.92
2018-02-24T03:01:56.709Z,28.90
2018-02-24T03:02:45.777Z,30.17
2018-02-24T03:03:34.835Z,33.33
2018-02-24T03:04:23.920Z,27.40
2018-02-24T03:05:13.033Z,25.95
2018-02-24T03:06:02.084Z,25.52
2018-02-24T03:06:51.161Z,25.05
2018-02-24T03:07:40.228Z,20.40
2018-02-24T03:08:29.279Z,16.55
2018-02-24T03:09:18.342Z,14.60
2018-02-24T03:10:07.401Z,17.37
2018-02-24T03:10:56.443Z,18.48
2018-02-24T03:11:45.492Z,18.80
2018-02-24T03:12:34.588Z,19.15
2018-02-24T03:13:23.639Z,18.00
2018-02-24T03:14:12.722Z,18.62
2018-02-24T03:15:01.773Z,17.73
2018-02-24T03:15:50.821Z,16.77
2018-02-24T03:16:40.145Z,16.35
2018-02-24T03:17:29.183Z,15.82
2018-02-24T03:18:18.248Z,14.38
2018-02-24T03:19:07.276Z,13.62
2018-02-24T03:19:56.330Z,11.15
2018-02-24T03:20:45.367Z,11.70
2018-02-24T03:21:34.417Z,12.15
2018-02-24T03:22:23.571Z,12.32
2018-02-24T03:23:12.624Z,12.23
2018-02-24T03:24:01.672Z,12.23
2018-02-24T03:24:50.732Z,13.05
2018-02-24T03:25:39.784Z,14.60
2018-02-24T03:26:28.836Z,13.82
2018-02-24T03:27:17.891Z,13.60
2018-02-24T03:28:07.049Z,15.00
2018-02-24T03:28:56.114Z,14.95
2018-02-24T03:29:45.179Z,15.27
2018-02-24T03:30:34.238Z,15.93
2018-02-24T03:31:23.294Z,14.90
2018-02-24T03:32:12.351Z,16.15
2018-02-24T03:33:01.430Z,16.02
2018-02-24T03:33:50.506Z,14.90
2018-02-24T03:34:39.538Z,14.63
2018-02-24T03:35:28.602Z,16.77
2018-02-24T03:36:17.659Z,18.05
2018-02-24T03:37:06.705Z,15.45
2018-02-24T03:37:55.757Z,16.27
2018-02-24T03:38:44.794Z,17.08
2018-02-24T03:39:34.080Z,18.00
2018-02-24T03:40:23.149Z,17.90
2018-02-24T03:41:13.141Z,18.05
2018-02-24T03:42:02.226Z,17.35
2018-02-24T03:42:51.283Z,16.30
2018-02-24T03:43:40.346Z,16.52
2018-02-24T03:44:29.404Z,15.88
2018-02-24T03:45:18.501Z,16.10
2018-02-24T03:46:09.496Z,16.30
2018-02-24T03:46:58.528Z,15.75
2018-02-24T03:47:47.595Z,17.37
2018-02-24T03:48:36.646Z,17.77
2018-02-24T03:49:25.728Z,18.48
2018-02-24T03:50:14.785Z,21.33
2018-02-24T03:51:04.066Z,22.90
2018-02-24T03:51:53.179Z,25.33
2018-02-24T03:52:42.242Z,31.37
2018-02-24T03:53:31.307Z,38.15
2018-02-24T03:54:20.376Z,39.67
2018-02-24T03:55:09.429Z,72.00
2018-02-24T03:55:58.503Z,124.12
2018-02-24T03:56:47.572Z,141.07
2018-02-24T03:57:36.914Z,87.70
2018-02-24T03:58:25.986Z,97.10
2018-02-24T03:59:15.155Z,112.10
2018-02-24T04:00:04.237Z,74.55
2018-02-24T04:00:53.292Z,60.88
2018-02-24T04:01:42.359Z,48.85
2018-02-24T04:02:31.411Z,38.03
2018-02-24T04:03:20.450Z,46.55
2018-02-24T04:04:09.491Z,34.05
2018-02-24T04:04:58.603Z,22.10
2018-02-24T04:05:47.674Z,17.48
2018-02-24T04:06:36.706Z,14.35
2018-02-24T04:07:25.817Z,18.98
2018-02-24T04:08:14.938Z,22.52
2018-02-24T04:09:04.035Z,26.20
2018-02-24T04:09:53.114Z,34.55
2018-02-24T04:10:42.150Z,32.20
2018-02-24T04:11:31.225Z,41.78
2018-02-24T04:12:20.285Z,26.37
2018-02-24T04:13:09.571Z,21.77
2018-02-24T04:13:58.632Z,28.73
2018-02-24T04:14:47.679Z,28.95
2018-02-24T04:15:36.851Z,33.65
2018-02-24T04:16:26.003Z,39.33
2018-02-24T04:17:15.009Z,32.80
2018-02-24T04:18:04.061Z,57.15
2018-02-24T04:18:56.274Z,33.03
2018-02-24T04:19:45.339Z,24.48
2018-02-24T04:20:34.397Z,28.30
2018-02-24T04:21:23.484Z,29.40
2018-02-24T04:22:12.599Z,22.35
2018-02-24T04:23:01.665Z,24.10
2018-02-24T04:23:50.716Z,22.23
2018-02-24T04:24:39.750Z,22.85
2018-02-24T04:25:28.782Z,23.50
2018-02-24T04:26:17.824Z,24.42
2018-02-24T04:27:06.876Z,26.17
2018-02-24T04:27:55.976Z,24.27
2018-02-24T04:28:45.028Z,23.70
2018-02-24T04:29:34.076Z,27.95
2018-02-24T04:30:23.174Z,26.37
2018-02-24T04:31:12.470Z,26.05
2018-02-24T04:32:01.513Z,19.90
2018-02-24T04:32:50.554Z,18.95
2018-02-24T04:33:39.613Z,17.60
2018-02-24T04:34:28.660Z,15.55
2018-02-24T04:35:17.707Z,15.65
2018-02-24T04:36:06.846Z,15.00
2018-02-24T04:36:55.883Z,19.00
2018-02-24T04:37:44.942Z,18.75
2018-02-24T04:38:34.018Z,47.88
2018-02-24T04:39:23.060Z,50.40
2018-02-24T04:40:12.105Z,41.37
2018-02-24T04:41:01.158Z,36.45
2018-02-24T04:41:50.269Z,35.45
2018-02-24T04:42:39.330Z,32.03
2018-02-24T04:43:28.386Z,36.97
2018-02-24T04:44:17.677Z,30.67
2018-02-24T04:52:03.120Z,21.17
2018-02-24T04:52:52.167Z,22.67
2018-02-24T04:53:41.210Z,21.52
2018-02-24T04:54:30.253Z,24.42
2018-02-24T04:55:19.308Z,19.98
2018-02-24T04:56:08.353Z,19.30
2018-02-24T04:56:57.394Z,20.88
2018-02-24T04:57:46.491Z,19.15
2018-02-24T04:58:35.539Z,20.88
2018-02-24T04:59:24.585Z,19.52
2018-02-24T05:00:13.623Z,20.65
2018-02-24T05:01:02.673Z,24.40
2018-02-24T05:01:51.719Z,29.27
2018-02-24T05:02:40.771Z,32.30
2018-02-24T05:03:29.838Z,36.05
2018-02-24T05:04:18.872Z,48.50
2018-02-24T05:05:07.921Z,41.50
2018-02-24T05:05:56.968Z,43.90
2018-02-24T05:06:46.033Z,48.58
2018-02-24T05:07:35.083Z,53.58
2018-02-24T05:08:24.122Z,49.90
2018-02-24T05:09:13.516Z,49.85
2018-02-24T05:10:02.605Z,110.30
2018-02-24T05:10:51.778Z,67.93
2018-02-24T05:11:40.833Z,83.72
2018-02-24T05:12:29.897Z,66.25
2018-02-24T05:13:18.943Z,69.72
2018-02-24T05:14:08.007Z,70.93
2018-02-24T05:14:57.075Z,64.53
2018-02-24T05:15:46.127Z,65.90
2018-02-24T05:16:35.230Z,64.82
2018-02-24T05:17:24.309Z,105.53
2018-02-24T05:18:13.358Z,476.73
2018-02-24T05:19:02.568Z,356.70
2018-02-24T05:19:51.636Z,324.10
2018-02-24T05:20:40.728Z,244.57
2018-02-24T05:21:29.779Z,322.52
2018-02-24T05:22:18.915Z,477.48
2018-02-24T05:23:07.979Z,274.55
2018-02-24T05:23:57.050Z,130.10
2018-02-24T05:24:46.126Z,95.22
2018-02-24T05:25:35.169Z,76.00
2018-02-24T05:26:24.230Z,94.30
2018-02-24T05:27:13.307Z,81.57
2018-02-24T05:28:02.479Z,211.32
2018-02-24T05:28:51.542Z,137.70
2018-02-24T05:29:40.623Z,130.15
2018-02-24T05:30:29.679Z,136.25
2018-02-24T05:31:18.757Z,111.35
2018-02-24T05:32:07.815Z,175.77
2018-02-24T05:32:56.868Z,179.82
2018-02-24T05:33:46.170Z,176.73
2018-02-24T05:34:35.239Z,106.22
2018-02-24T05:35:24.305Z,72.12
2018-02-24T05:36:13.355Z,62.35
2018-02-24T05:37:02.433Z,76.28
2018-02-24T05:37:51.489Z,76.22
2018-02-24T05:38:40.527Z,69.82
2018-02-24T05:39:29.647Z,76.50
2018-02-24T05:40:18.701Z,158.60
2018-02-24T05:41:07.754Z,116.55
2018-02-24T05:41:56.853Z,218.12
2018-02-24T05:42:45.910Z,100.12
2018-02-24T05:43:34.953Z,68.12
2018-02-24T05:44:24.020Z,100.82
2018-02-24T05:45:13.097Z,123.57
2018-02-24T05:46:02.170Z,114.03
2018-02-24T05:46:51.228Z,61.67
2018-02-24T05:47:40.373Z,58.95
2018-02-24T05:48:29.648Z,61.17
2018-02-24T05:49:18.698Z,61.60
2018-02-24T05:50:07.748Z,60.83
2018-02-24T05:50:56.796Z,58.50
2018-02-24T05:51:46.520Z,60.67
2018-02-24T05:52:35.581Z,62.97
2018-02-24T05:53:24.675Z,65.45
2018-02-24T05:54:13.726Z,71.07
2018-02-24T05:55:02.772Z,70.78
2018-02-24T05:55:51.814Z,72.00
2018-02-24T05:56:40.864Z,78.15
2018-02-24T05:57:29.921Z,75.82
2018-02-24T05:58:18.976Z,84.60
2018-02-24T05:59:08.240Z,101.00
2018-02-24T05:59:57.291Z,86.28
2018-02-24T06:00:46.526Z,116.20
2018-02-24T06:01:36.190Z,123.22
2018-02-24T06:02:26.064Z,120.72
2018-02-24T06:03:15.172Z,119.80
2018-02-24T06:04:04.566Z,122.40
2018-02-24T06:04:53.684Z,124.00
2018-02-24T06:05:42.769Z,108.78
2018-02-24T06:06:32.005Z,109.93
2018-02-24T06:07:21.101Z,103.75
2018-02-24T06:08:10.475Z,104.55
2018-02-24T06:08:59.535Z,105.12
2018-02-24T06:09:48.582Z,103.80
2018-02-24T06:10:37.664Z,100.28
2018-02-24T06:11:26.754Z,91.97
2018-02-24T06:12:15.831Z,108.37
2018-02-24T06:13:04.920Z,99.82
2018-02-24T06:13:54.279Z,95.93
2018-02-24T06:14:43.362Z,94.32
2018-02-24T06:15:32.414Z,107.97
2018-02-24T06:16:21.468Z,66.18
2018-02-24T06:17:10.528Z,89.87
2018-02-24T06:17:59.580Z,88.03
2018-02-24T06:18:48.621Z,59.70
2018-02-24T06:19:37.663Z,68.93
2018-02-24T06:20:26.931Z,67.37
2018-02-24T06:21:16.000Z,69.40
2018-02-24T06:22:05.093Z,67.62
2018-02-24T06:22:54.144Z,62.70
2018-02-24T06:23:43.182Z,67.30
2018-02-24T06:24:32.222Z,82.15
2018-02-24T06:25:21.363Z,79.68
2018-02-24T06:26:11.173Z,82.22
2018-02-24T06:27:00.416Z,87.47
2018-02-24T06:27:49.637Z,83.53
2018-02-24T06:28:38.706Z,96.97
2018-02-24T06:29:27.769Z,88.55
2018-02-24T06:30:16.836Z,85.80
2018-02-24T06:31:05.908Z,89.30
2018-02-24T06:31:54.980Z,92.55
2018-02-24T06:32:44.031Z,95.95
2018-02-24T06:33:33.134Z,93.82
2018-02-24T06:34:22.195Z,92.47
2018-02-24T06:35:11.262Z,102.07
2018-02-24T06:36:00.338Z,135.90
2018-02-24T06:36:49.499Z,121.00
2018-02-24T06:37:39.478Z,133.60
2018-02-24T06:38:28.556Z,142.73
2018-02-24T06:39:17.635Z,127.28
2018-02-24T06:40:06.712Z,128.10
2018-02-24T06:40:55.786Z,124.47
2018-02-24T06:41:44.848Z,125.03
2018-02-24T06:42:33.910Z,121.80
2018-02-24T06:43:23.061Z,179.27
2018-02-24T06:44:12.120Z,118.00
2018-02-24T06:45:01.208Z,123.07
2018-02-24T06:45:50.270Z,111.60
2018-02-24T06:46:39.538Z,132.07
2018-02-24T06:47:30.993Z,108.60
2018-02-24T06:48:20.090Z,206.80
2018-02-24T06:49:09.404Z,124.40
2018-02-24T06:49:58.515Z,125.82
2018-02-24T06:50:47.661Z,128.80
2018-02-24T06:51:36.761Z,119.95
2018-02-24T06:52:25.835Z,115.45
2018-02-24T06:53:14.921Z,109.45
2018-02-24T06:54:04.214Z,125.18
2018-02-24T06:54:53.295Z,113.97
2018-02-24T06:55:42.385Z,104.90
2018-02-24T06:56:31.469Z,89.90
2018-02-24T06:57:20.553Z,91.65
2018-02-24T06:58:09.612Z,97.95
2018-02-24T06:58:58.663Z,97.95
2018-02-24T06:59:47.725Z,105.20
2018-02-24T07:00:36.801Z,99.15
2018-02-24T07:01:25.946Z,94.25
2018-02-24T07:02:15.014Z,90.90
2018-02-24T07:03:04.080Z,81.95
2018-02-24T07:03:53.163Z,78.68
2018-02-24T07:04:42.537Z,75.85
2018-02-24T07:05:31.695Z,67.00
2018-02-24T07:06:20.797Z,57.95
2018-02-24T07:07:09.890Z,62.47
2018-02-24T07:07:58.950Z,59.80
2018-02-24T07:08:48.005Z,63.75
2018-02-24T07:09:37.057Z,61.60
2018-02-24T07:10:26.100Z,50.63
2018-02-24T07:11:15.222Z,54.30
2018-02-24T07:12:04.382Z,58.85
2018-02-24T07:15:42.020Z,26.98
2018-02-24T07:16:31.075Z,27.83
2018-02-24T07:17:20.198Z,25.23
2018-02-24T07:18:09.585Z,26.52
2018-02-24T07:18:58.654Z,27.73
2018-02-24T07:19:47.694Z,28.77
2018-02-24T07:20:36.757Z,36.05
2018-02-24T07:21:25.789Z,32.60
2018-02-24T07:22:14.830Z,22.92
2018-02-24T07:23:04.103Z,21.12
2018-02-24T07:23:53.167Z,21.08
2018-02-24T07:24:42.230Z,22.25
2018-02-24T07:25:31.297Z,24.52
2018-02-24T07:26:20.363Z,25.73
2018-02-24T07:27:09.402Z,26.55
2018-02-24T07:27:58.479Z,23.85
2018-02-24T07:28:47.635Z,25.35
2018-02-24T07:29:36.706Z,28.58
2018-02-24T07:30:25.756Z,28.52
2018-02-24T07:31:14.822Z,25.20
2018-02-24T07:32:06.843Z,22.40
2018-02-24T07:32:56.424Z,23.83
2018-02-24T07:33:48.815Z,21.27
2018-02-24T07:34:39.987Z,23.98
2018-02-24T07:35:29.463Z,47.83
2018-02-24T07:36:18.524Z,25.02
2018-02-24T07:37:07.571Z,22.87
2018-02-24T07:37:56.648Z,21.90
2018-02-24T07:38:45.751Z,21.83
2018-02-24T07:39:35.887Z,19.42
2018-02-24T07:40:26.425Z,19.05
2018-02-24T07:41:19.290Z,18.62
2018-02-24T07:42:12.824Z,23.87
2018-02-24T07:43:05.155Z,24.73
2018-02-24T07:43:57.657Z,23.33
2018-02-24T07:44:51.024Z,25.33
2018-02-24T07:45:40.311Z,34.60
2018-02-24T07:46:29.475Z,31.58
2018-02-24T07:47:18.620Z,27.20
2018-02-24T07:48:07.711Z,26.60
2018-02-24T07:48:57.060Z,28.23
2018-02-24T07:49:46.154Z,29.40
2018-02-24T07:50:35.292Z,25.65
2018-02-24T07:51:24.424Z,23.77
2018-02-24T07:52:13.574Z,18.40
2018-02-24T07:53:02.652Z,18.92
2018-02-24T07:53:51.724Z,12.15
2018-02-24T07:54:40.804Z,13.95
2018-02-24T07:55:29.905Z,16.10
2018-02-24T07:56:19.129Z,11.00
2018-02-24T07:57:08.238Z,13.57
2018-02-24T07:57:57.363Z,18.35
2018-02-24T07:58:46.461Z,13.48
2018-02-24T07:59:35.570Z,22.17
2018-02-24T08:00:24.685Z,23.17
2018-02-24T08:01:13.765Z,28.15
2018-02-24T08:02:03.262Z,24.73
2018-02-24T08:02:52.409Z,23.62
2018-02-24T08:03:41.542Z,19.60
2018-02-24T08:04:30.661Z,21.15
2018-02-24T08:05:19.782Z,19.02
2018-02-24T08:06:08.864Z,19.23
2018-02-24T08:06:57.987Z,23.67
2018-02-24T08:07:47.261Z,21.02
2018-02-24T08:08:36.388Z,25.73
2018-02-24T08:09:25.490Z,28.48
2018-02-24T08:10:14.569Z,22.55
2018-02-24T08:11:03.683Z,22.10
2018-02-24T08:11:52.745Z,22.13
2018-02-24T08:12:41.849Z,21.80
2018-02-24T08:13:30.987Z,20.08
2018-02-24T08:14:20.106Z,18.80
2018-02-24T08:15:09.201Z,16.77
2018-02-24T08:15:58.351Z,16.65
2018-02-24T08:16:47.489Z,17.37
2018-02-24T08:17:36.592Z,16.55
2018-02-24T08:18:25.770Z,18.35
2018-02-24T08:19:14.859Z,17.15
2018-02-24T08:20:03.942Z,14.87
2018-02-24T08:20:53.035Z,10.63
2018-02-24T08:21:42.144Z,10.85
2018-02-24T08:22:31.238Z,10.45
2018-02-24T08:23:20.340Z,10.35
2018-02-24T08:24:09.805Z,11.10
2018-02-24T08:24:59.076Z,11.18
2018-02-24T08:25:48.364Z,20.17
2018-02-24T08:26:37.575Z,13.80
2018-02-24T08:27:26.690Z,13.73
2018-02-24T08:28:15.820Z,14.40
2018-02-24T08:29:04.902Z,11.98
2018-02-24T08:29:54.040Z,10.63
2018-02-24T08:30:43.124Z,11.38
2018-02-24T08:31:32.225Z,12.98
2018-02-24T08:32:21.357Z,14.77
2018-02-24T08:33:10.433Z,13.50
2018-02-24T08:33:59.578Z,17.15
2018-02-24T08:34:48.672Z,15.43
2018-02-24T08:35:37.763Z,21.75
2018-02-24T08:36:26.870Z,28.92
2018-02-24T08:37:15.932Z,33.17
2018-02-24T08:38:05.050Z,21.42
2018-02-24T08:38:54.165Z,20.90
2018-02-24T08:39:43.263Z,20.10
2018-02-24T08:40:32.351Z,19.30
2018-02-24T08:41:23.266Z,16.83
2018-02-24T08:42:12.441Z,16.95
2018-02-24T08:43:01.541Z,23.42
2018-02-24T08:43:51.554Z,23.30
2018-02-24T08:44:40.684Z,15.63
2018-02-24T08:45:29.784Z,17.95
2018-02-24T08:46:18.882Z,14.02
2018-02-24T08:47:08.085Z,14.32
2018-02-24T08:47:58.898Z,18.15
2018-02-24T08:48:48.009Z,16.75
2018-02-24T08:49:37.084Z,35.65
2018-02-24T08:50:26.150Z,18.80
2018-02-24T08:51:15.265Z,19.67
2018-02-24T08:52:04.328Z,27.87
2018-02-24T08:52:53.471Z,28.02
2018-02-24T08:53:42.575Z,25.17
2018-02-24T08:54:31.657Z,15.25
2018-02-24T08:55:20.778Z,12.63
2018-02-24T08:56:09.853Z,16.77
2018-02-24T08:56:58.999Z,15.18
2018-02-24T08:57:48.133Z,13.75
2018-02-24T08:58:37.272Z,14.87
2018-02-24T08:59:26.501Z,12.37
2018-02-24T09:00:15.484Z,13.25
2018-02-24T09:01:04.554Z,20.88
2018-02-24T09:01:53.681Z,13.65
2018-02-24T09:02:42.757Z,11.45
2018-02-24T09:03:31.992Z,11.98
2018-02-24T09:04:21.402Z,13.77
2018-02-24T09:05:10.552Z,19.52
2018-02-24T09:05:59.647Z,15.23
2018-02-24T09:06:48.716Z,14.63
2018-02-24T09:07:37.829Z,17.90
2018-02-24T09:08:26.989Z,12.37
2018-02-24T09:09:16.044Z,14.30
2018-02-24T09:10:06.159Z,14.85
2018-02-24T09:10:55.328Z,33.60
2018-02-24T09:11:44.512Z,38.75
2018-02-24T09:12:33.568Z,36.15
2018-02-24T09:13:22.666Z,39.03
2018-02-24T09:14:11.734Z,32.10
2018-02-24T09:15:00.888Z,17.85
2018-02-24T09:15:50.199Z,38.47
2018-02-24T09:16:39.254Z,21.30
2018-02-24T09:17:28.379Z,18.30
2018-02-24T09:18:17.464Z,28.00
2018-02-24T09:19:06.685Z,23.65
2018-02-24T09:19:58.886Z,21.85
2018-02-24T09:20:48.030Z,16.95
2018-02-24T09:21:37.122Z,17.75
2018-02-24T09:22:26.204Z,17.12
2018-02-24T09:23:15.534Z,51.75
2018-02-24T09:24:04.893Z,54.10
2018-02-24T09:24:54.057Z,20.98
2018-02-24T09:25:43.214Z,18.27
2018-02-24T09:26:32.395Z,21.75
2018-02-24T09:27:21.863Z,40.78
2018-02-24T09:28:10.960Z,41.10
2018-02-24T09:29:00.061Z,27.55
2018-02-24T09:29:49.125Z,32.70
2018-02-24T09:30:38.190Z,52.65
2018-02-24T09:31:27.278Z,37.33
2018-02-24T09:32:16.503Z,31.27
2018-02-24T09:33:05.701Z,32.17
2018-02-24T09:33:54.850Z,34.83
2018-02-24T09:34:43.962Z,33.08
2018-02-24T09:35:33.054Z,25.83
2018-02-24T09:36:22.120Z,22.70
2018-02-24T09:37:11.225Z,24.12
2018-02-24T09:38:00.335Z,22.95
2018-02-24T09:38:49.570Z,19.48
2018-02-24T09:39:38.656Z,22.50
2018-02-24T09:40:27.760Z,24.87
2018-02-24T09:41:16.896Z,26.45
2018-02-24T09:42:06.029Z,24.83
2018-02-24T09:42:55.110Z,24.05
2018-02-24T09:43:44.190Z,25.15
2018-02-24T09:44:33.502Z,24.87
2018-02-24T09:45:22.625Z,25.90
2018-02-24T09:46:11.718Z,18.92
2018-02-24T09:47:00.867Z,19.65
2018-02-24T09:47:49.949Z,33.72
2018-02-24T09:48:39.034Z,17.95
2018-02-24T09:49:28.122Z,18.08
2018-02-24T09:50:17.225Z,33.78
2018-02-24T09:51:06.402Z,31.30
2018-02-24T09:51:55.492Z,33.47
2018-02-24T09:52:44.790Z,27.08
2018-02-24T09:53:33.943Z,22.87
2018-02-24T09:54:23.079Z,27.13
2018-02-24T09:55:20.251Z,22.52
2018-02-24T09:56:12.806Z,19.30
2018-02-24T09:57:02.089Z,16.58
2018-02-24T09:57:51.141Z,16.58
2018-02-24T09:58:40.257Z,17.98
2018-02-24T09:59:29.353Z,13.38
2018-02-24T10:00:20.956Z,22.27
2018-02-24T10:01:13.924Z,17.30
2018-02-24T10:02:03.315Z,16.08
2018-02-24T10:02:52.365Z,17.77
2018-02-24T10:03:41.503Z,23.62
2018-02-24T10:04:30.610Z,17.58
2018-02-24T10:05:19.718Z,16.20
2018-02-24T10:06:08.791Z,19.12
2018-02-24T10:06:57.903Z,42.67
2018-02-24T10:07:47.029Z,31.05
2018-02-24T10:08:36.252Z,36.50
2018-02-24T10:09:25.325Z,44.35
2018-02-24T10:10:14.441Z,70.22
2018-02-24T10:11:03.598Z,35.00
2018-02-24T10:11:52.687Z,24.65
2018-02-24T10:12:41.878Z,26.85
2018-02-24T10:13:30.963Z,20.20
2018-02-24T10:14:20.407Z,35.75
2018-02-24T10:15:11.272Z,27.98
2018-02-24T10:16:00.354Z,14.75
2018-02-24T10:16:49.452Z,19.25
2018-02-24T10:17:38.524Z,23.75
2018-02-24T10:18:27.973Z,22.37
2018-02-24T10:19:17.325Z,31.65
2018-02-24T10:20:06.420Z,26.60
2018-02-24T10:20:55.610Z,21.45
2018-02-24T10:21:44.710Z,24.30
2018-02-24T10:22:33.864Z,22.58
2018-02-24T10:23:22.963Z,19.15
2018-02-24T10:24:12.023Z,33.15
2018-02-24T10:25:01.230Z,39.33
2018-02-24T10:25:50.262Z,24.42
2018-02-24T10:26:39.362Z,36.80
2018-02-24T10:27:28.524Z,40.38
2018-02-24T10:28:17.811Z,30.60
2018-02-24T10:29:06.963Z,35.60
2018-02-24T10:29:56.105Z,32.45
2018-02-24T10:30:45.199Z,13.82
2018-02-24T10:31:34.284Z,16.23
2018-02-24T10:32:23.408Z,16.10
2018-02-24T10:33:12.489Z,17.67
2018-02-24T10:34:01.632Z,16.52
2018-02-24T10:34:50.909Z,19.73
2018-02-24T10:35:40.088Z,26.42
2018-02-24T10:36:29.178Z,34.03
2018-02-24T10:37:18.258Z,23.70
2018-02-24T10:38:07.329Z,20.05
2018-02-24T10:38:56.384Z,37.58
2018-02-24T10:39:45.468Z,40.75
2018-02-24T10:40:34.562Z,34.35
2018-02-24T10:41:23.671Z,39.47